Time;durP1;ratioP1;P1;durP2;ratioP2;P2;SDS_P1;SDS_P2;PMS_P1;PMS_P2;Temp;Humidity;BMP_temperature;BMP_pressure;BME280_temperature;BME280_humidity;BME280_pressure;Samples;Min_cycle;Max_cycle;Signal;HPM_P1;HPM_P2
2024/01/01 00:02:11;;;;;;;9.68;3.10;;;6.50;99.90;;;;;;4875264;29;20048;-61
2024/01/01 00:04:39;;;;;;;11.93;3.42;;;6.50;99.90;;;;;;4861660;29;20079;-61
2024/01/01 00:07:08;;;;;;;16.45;5.65;;;6.50;99.90;;;;;;4876366;29;20045;-62
2024/01/01 00:09:37;;;;;;;14.37;6.50;;;6.40;99.90;;;;;;4876479;29;20053;-64
2024/01/01 00:12:08;;;;;;;9.18;2.05;;;6.40;99.90;;;;;;4848558;29;20064;-65
2024/01/01 00:14:37;;;;;;;9.85;1.80;;;6.40;99.90;;;;;;4871007;29;20049;-66
2024/01/01 00:17:05;;;;;;;3.72;1.13;;;6.40;99.90;;;;;;4865714;29;20721;-62
2024/01/01 00:19:34;;;;;;;7.63;1.30;;;6.40;99.90;;;;;;4856379;29;20495;-68
2024/01/01 00:22:02;;;;;;;7.23;0.70;;;6.30;99.90;;;;;;4858042;29;20065;-63
2024/01/01 00:24:30;;;;;;;3.20;1.05;;;6.40;99.90;;;;;;4868921;29;20490;-67
2024/01/01 00:26:58;;;;;;;6.45;0.70;;;6.40;99.90;;;;;;4866707;29;20379;-67
2024/01/01 00:29:26;;;;;;;6.75;0.90;;;6.40;99.90;;;;;;4854323;29;20064;-70
2024/01/01 00:32:05;;;;;;;12.65;1.90;;;6.40;99.90;;;;;;4867502;29;20060;-65
2024/01/01 00:34:34;;;;;;;4.80;1.20;;;6.40;99.90;;;;;;4869353;29;20617;-62
2024/01/01 00:37:03;;;;;;;4.43;0.98;;;6.40;99.90;;;;;;4871503;29;20056;-66
2024/01/01 00:39:31;;;;;;;4.70;1.55;;;6.30;99.90;;;;;;4870167;29;20060;-62
2024/01/01 00:41:59;;;;;;;9.57;1.10;;;6.30;99.90;;;;;;4863693;29;20053;-65
2024/01/01 00:44:27;;;;;;;5.40;0.95;;;6.30;99.90;;;;;;4862702;29;20061;-64
2024/01/01 00:46:57;;;;;;;4.75;0.90;;;6.30;99.90;;;;;;4871103;29;20049;-62
2024/01/01 00:49:25;;;;;;;7.60;1.00;;;6.30;99.90;;;;;;4857281;29;20053;-67
2024/01/01 00:51:53;;;;;;;11.68;1.23;;;6.30;99.90;;;;;;4871983;29;20056;-65
2024/01/01 00:54:24;;;;;;;6.75;1.33;;;6.30;99.90;;;;;;4872499;29;20053;-64
2024/01/01 00:56:54;;;;;;;6.75;1.10;;;6.30;99.90;;;;;;4864208;29;20406;-61
2024/01/01 00:59:22;;;;;;;6.45;1.05;;;6.30;99.90;;;;;;4854937;29;20057;-69
2024/01/01 01:01:53;;;;;;;14.35;1.52;;;6.30;99.90;;;;;;4849903;29;20053;-66
2024/01/01 01:04:21;;;;;;;5.57;1.33;;;6.30;99.90;;;;;;4860990;29;20367;-62
2024/01/01 01:06:50;;;;;;;4.95;0.90;;;6.20;99.90;;;;;;4862657;29;20057;-67
2024/01/01 01:09:18;;;;;;;6.25;1.20;;;6.30;99.90;;;;;;4872030;29;20057;-70
2024/01/01 01:11:46;;;;;;;9.32;0.93;;;6.40;99.90;;;;;;4866748;29;20053;-62
2024/01/01 01:14:14;;;;;;;6.72;1.05;;;6.40;99.90;;;;;;4852465;29;20053;-62
2024/01/01 01:16:42;;;;;;;4.30;0.85;;;6.40;99.90;;;;;;4872212;29;20053;-60
2024/01/01 01:19:11;;;;;;;6.15;0.98;;;6.40;99.90;;;;;;4871861;29;20049;-61
2024/01/01 01:21:39;;;;;;;7.90;1.00;;;6.40;99.90;;;;;;4870960;29;20053;-61
2024/01/01 01:24:07;;;;;;;24.58;1.58;;;6.50;99.90;;;;;;4865676;29;20236;-61
2024/01/01 01:26:37;;;;;;;8.98;1.30;;;6.50;99.90;;;;;;4853835;29;20109;-61
2024/01/01 01:29:05;;;;;;;7.65;1.25;;;6.50;99.90;;;;;;4865751;29;20049;-61
2024/01/01 01:31:34;;;;;;;9.30;1.48;;;6.50;99.90;;;;;;4870443;29;20052;-61
2024/01/01 01:34:02;;;;;;;3.80;0.95;;;6.50;99.90;;;;;;4865876;29;20057;-61
2024/01/01 01:36:30;;;;;;;6.55;1.00;;;6.50;99.90;;;;;;4852867;29;20476;-61
2024/01/01 01:38:58;;;;;;;10.13;1.20;;;6.50;99.90;;;;;;4865259;29;20053;-67
2024/01/01 01:41:26;;;;;;;28.98;2.55;;;6.40;99.90;;;;;;4871188;29;20061;-64
2024/01/01 01:43:55;;;;;;;10.23;1.95;;;6.40;99.90;;;;;;4861388;29;20398;-62
2024/01/01 01:46:24;;;;;;;5.05;0.70;;;6.40;99.90;;;;;;4873764;29;20053;-65
2024/01/01 01:48:52;;;;;;;4.57;0.77;;;6.40;99.90;;;;;;4874771;29;20053;-61
2024/01/01 01:51:20;;;;;;;5.70;1.55;;;6.30;99.90;;;;;;4873653;29;20080;-64
2024/01/01 01:53:48;;;;;;;7.63;0.80;;;6.40;99.90;;;;;;4870884;29;20045;-65
2024/01/01 01:56:17;;;;;;;3.60;0.63;;;6.40;99.90;;;;;;4856160;29;20060;-66
2024/01/01 01:58:47;;;;;;;2.85;0.52;;;6.40;99.90;;;;;;4865435;29;20049;-65
2024/01/01 02:01:16;;;;;;;;;;;6.40;99.90;;;;;;4874002;29;20048;-61
2024/01/01 02:03:47;;;;;;;4.30;0.70;;;6.50;99.90;;;;;;4869430;29;20376;-61
2024/01/01 02:06:15;;;;;;;7.65;1.10;;;6.50;99.90;;;;;;4856094;29;20434;-66
2024/01/01 02:08:43;;;;;;;3.80;0.68;;;6.50;99.90;;;;;;4856006;29;20046;-60
2024/01/01 02:11:11;;;;;;;11.15;1.30;;;6.60;99.90;;;;;;4858970;29;20049;-69
2024/01/01 02:13:39;;;;;;;5.72;0.80;;;6.60;99.90;;;;;;4860514;29;20072;-64
2024/01/01 02:16:07;;;;;;;6.50;0.90;;;6.60;99.90;;;;;;4874767;29;20049;-65
2024/01/01 02:18:35;;;;;;;8.48;1.00;;;6.60;99.90;;;;;;4874093;29;20056;-71
2024/01/01 02:21:03;;;;;;;9.27;1.27;;;6.60;99.90;;;;;;4873036;29;20064;-64
2024/01/01 02:23:31;;;;;;;3.28;0.73;;;6.60;99.90;;;;;;4871219;29;20075;-61
2024/01/01 02:25:59;;;;;;;5.78;0.80;;;6.60;99.90;;;;;;4874487;29;20078;-69
2024/01/01 02:28:27;;;;;;;6.75;0.80;;;6.50;99.90;;;;;;4860456;29;20048;-69
2024/01/01 02:30:55;;;;;;;6.47;1.13;;;6.50;99.90;;;;;;4859030;29;20056;-67
2024/01/01 02:33:23;;;;;;;6.60;0.57;;;6.50;99.90;;;;;;4857163;29;20478;-62
2024/01/01 02:35:51;;;;;;;7.63;1.13;;;6.50;99.90;;;;;;4874547;29;20056;-60
2024/01/01 02:38:20;;;;;;;6.55;1.00;;;6.50;99.90;;;;;;4877432;29;20052;-66
2024/01/01 02:40:48;;;;;;;1.42;0.68;;;6.50;99.90;;;;;;4876390;29;20049;-63
2024/01/01 02:43:16;;;;;;;3.50;0.80;;;6.50;99.90;;;;;;4864938;29;20509;-65
2024/01/01 02:45:44;;;;;;;7.43;1.33;;;6.50;99.90;;;;;;4859880;29;20042;-60
2024/01/01 02:48:12;;;;;;;7.03;0.88;;;6.50;99.90;;;;;;4877493;29;20065;-62
2024/01/01 02:50:41;;;;;;;5.32;0.73;;;6.50;99.90;;;;;;4877473;29;20049;-62
2024/01/01 02:53:09;;;;;;;8.00;1.05;;;6.50;99.90;;;;;;4875008;29;20056;-64
2024/01/01 02:55:37;;;;;;;4.28;0.70;;;6.50;99.90;;;;;;4877614;29;20056;-64
2024/01/01 02:58:05;;;;;;;0.75;0.50;;;6.50;99.90;;;;;;4877085;29;20505;-61
2024/01/01 03:00:34;;;;;;;4.55;1.00;;;6.50;99.90;;;;;;4875037;29;20056;-60
2024/01/01 03:03:06;;;;;;;4.22;0.50;;;6.50;99.90;;;;;;4868818;29;20053;-61
2024/01/01 03:05:34;;;;;;;0.60;0.30;;;6.50;99.90;;;;;;4866162;29;20057;-62
2024/01/01 03:08:01;;;;;;;4.47;0.98;;;6.50;99.90;;;;;;4861329;29;20055;-61
2024/01/01 03:10:30;;;;;;;4.82;0.80;;;6.50;99.90;;;;;;4861148;29;20058;-61
2024/01/01 03:12:57;;;;;;;1.77;0.50;;;6.60;99.90;;;;;;4868190;29;20124;-62
2024/01/01 03:15:27;;;;;;;6.75;1.10;;;6.50;99.90;;;;;;4881018;29;20409;-62
2024/01/01 03:17:55;;;;;;;3.25;1.48;;;6.50;99.90;;;;;;4875777;29;20056;-62
2024/01/01 03:20:27;;;;;;;2.35;0.38;;;6.50;99.90;;;;;;4861906;29;20045;-61
2024/01/01 03:22:54;;;;;;;5.20;0.77;;;6.50;99.90;;;;;;4862179;29;20050;-61
2024/01/01 03:25:22;;;;;;;1.70;0.82;;;6.50;99.90;;;;;;4861042;29;20545;-62
2024/01/01 03:27:50;;;;;;;3.33;0.57;;;6.50;99.90;;;;;;4862094;29;20053;-61
2024/01/01 03:30:19;;;;;;;5.93;1.15;;;6.50;99.90;;;;;;4862147;29;20049;-61
2024/01/01 03:32:49;;;;;;;3.28;0.47;;;6.60;99.90;;;;;;4860762;29;20479;-67
2024/01/01 03:35:19;;;;;;;4.80;0.95;;;6.60;99.90;;;;;;4865018;29;20037;-63
2024/01/01 03:37:48;;;;;;;4.78;0.73;;;6.60;99.90;;;;;;4880540;29;20053;-61
2024/01/01 03:40:15;;;;;;;5.63;0.70;;;6.60;99.90;;;;;;4879414;29;20056;-64
2024/01/01 03:42:44;;;;;;;0.90;0.40;;;6.60;99.90;;;;;;4880300;29;20486;-60
2024/01/01 03:45:12;;;;;;;4.65;0.98;;;6.50;99.90;;;;;;4879331;29;20049;-62
2024/01/01 03:47:40;;;;;;;10.13;0.85;;;6.50;99.90;;;;;;4880206;29;20056;-62
2024/01/01 03:50:09;;;;;;;4.65;0.65;;;6.50;99.90;;;;;;4878822;29;20498;-62
2024/01/01 03:52:38;;;;;;;3.85;0.80;;;6.40;99.90;;;;;;4880228;29;20048;-62
2024/01/01 03:55:06;;;;;;;3.97;0.93;;;6.30;99.90;;;;;;4877106;29;20063;-62
2024/01/01 03:57:35;;;;;;;6.07;1.33;;;6.20;99.90;;;;;;4876611;29;20056;-64
2024/01/01 04:00:06;;;;;;;6.10;0.68;;;6.20;99.90;;;;;;4879055;29;20048;-63
2024/01/01 04:02:35;;;;;;;4.65;0.90;;;6.10;99.90;;;;;;4879688;29;20064;-64
2024/01/01 04:05:03;;;;;;;5.57;0.82;;;6.00;99.90;;;;;;4878723;29;20541;-61
2024/01/01 04:07:31;;;;;;;4.20;0.65;;;5.90;99.90;;;;;;4877005;29;20052;-62
2024/01/01 04:09:59;;;;;;;7.30;0.82;;;5.90;99.90;;;;;;4860084;29;20050;-62
2024/01/01 04:12:27;;;;;;;4.13;0.80;;;5.90;99.90;;;;;;4858812;29;20058;-64
2024/01/01 04:14:55;;;;;;;1.35;0.40;;;5.90;99.90;;;;;;4860143;29;20046;-64
2024/01/01 04:17:23;;;;;;;4.30;0.80;;;5.80;99.90;;;;;;4861158;29;20406;-62
2024/01/01 04:19:53;;;;;;;3.50;0.40;;;5.80;99.90;;;;;;4861154;29;20498;-61
2024/01/01 04:22:21;;;;;;;6.97;0.77;;;5.80;99.90;;;;;;4861072;29;20073;-61
2024/01/01 04:24:53;;;;;;;8.68;0.88;;;5.80;99.90;;;;;;4861037;29;20058;-61
2024/01/01 04:27:20;;;;;;;5.93;0.90;;;5.70;99.90;;;;;;4861030;29;20049;-61
2024/01/01 04:29:49;;;;;;;4.60;0.60;;;5.80;99.90;;;;;;4861210;29;20070;-62
2024/01/01 04:32:17;;;;;;;1.65;0.43;;;5.80;99.90;;;;;;4859563;29;20049;-61
2024/01/01 04:34:45;;;;;;;3.60;0.50;;;5.80;99.90;;;;;;4869118;29;20512;-62
2024/01/01 04:37:13;;;;;;;6.97;0.50;;;5.90;99.90;;;;;;4879626;29;20049;-62
2024/01/01 04:39:41;;;;;;;4.00;0.90;;;6.00;99.90;;;;;;4875073;29;20064;-61
2024/01/01 04:42:09;;;;;;;5.28;0.80;;;6.00;99.90;;;;;;4862595;29;20057;-61
2024/01/01 04:44:37;;;;;;;4.20;0.80;;;6.10;99.90;;;;;;4861210;29;20053;-62
2024/01/01 04:47:07;;;;;;;6.88;1.10;;;6.10;99.90;;;;;;4872887;29;20063;-62
2024/01/01 04:49:35;;;;;;;4.95;0.85;;;6.10;99.90;;;;;;4879399;29;20424;-61
2024/01/01 04:52:03;;;;;;;5.93;0.80;;;6.20;99.90;;;;;;4879141;29;20410;-62
2024/01/01 04:54:31;;;;;;;3.33;0.80;;;6.20;99.90;;;;;;4879131;29;20072;-62
2024/01/01 04:56:59;;;;;;;9.00;1.30;;;6.30;99.90;;;;;;4866227;29;20052;-60
2024/01/01 04:59:27;;;;;;;3.97;0.80;;;6.30;99.90;;;;;;4879201;29;20052;-61
2024/01/01 05:01:55;;;;;;;7.13;1.05;;;6.30;99.90;;;;;;4877545;29;20520;-61
2024/01/01 05:04:23;;;;;;;5.78;0.82;;;6.30;99.90;;;;;;4873587;29;20426;-62
2024/01/01 05:06:51;;;;;;;5.07;0.75;;;6.30;99.90;;;;;;4860309;29;20394;-60
2024/01/01 05:09:20;;;;;;;4.25;0.60;;;6.30;99.90;;;;;;4860370;29;20050;-61
2024/01/01 05:11:48;;;;;;;4.88;1.25;;;6.30;99.90;;;;;;4871431;29;20045;-61
2024/01/01 05:14:16;;;;;;;2.65;0.52;;;6.30;99.90;;;;;;4862268;29;20060;-61
2024/01/01 05:16:47;;;;;;;5.07;0.80;;;6.30;99.90;;;;;;4878838;29;20405;-63
2024/01/01 05:19:15;;;;;;;7.40;1.02;;;6.30;99.90;;;;;;4878558;29;20086;-64
2024/01/01 05:21:43;;;;;;;3.03;0.50;;;6.40;99.90;;;;;;4866827;29;20053;-62
2024/01/01 05:24:11;;;;;;;4.93;0.98;;;6.30;99.90;;;;;;4859784;29;20053;-62
2024/01/01 05:26:39;;;;;;;4.32;0.80;;;6.30;99.90;;;;;;4864494;29;20045;-61
2024/01/01 05:29:07;;;;;;;4.22;0.95;;;6.30;99.90;;;;;;4878669;29;20507;-62
2024/01/01 05:31:35;;;;;;;4.90;0.50;;;6.30;99.90;;;;;;4867810;29;20061;-62
2024/01/01 05:34:03;;;;;;;5.82;0.60;;;6.30;99.90;;;;;;4862537;29;20068;-63
2024/01/01 05:36:32;;;;;;;3.03;0.60;;;6.20;99.90;;;;;;4878338;29;20057;-65
2024/01/01 05:39:00;;;;;;;4.68;0.65;;;6.20;99.90;;;;;;4877272;29;20056;-61
2024/01/01 05:41:29;;;;;;;3.72;0.73;;;6.20;99.90;;;;;;4877256;29;20493;-62
2024/01/01 05:43:57;;;;;;;6.00;0.95;;;6.10;99.90;;;;;;4868179;29;20058;-61
2024/01/01 05:46:25;;;;;;;3.08;0.60;;;6.10;99.90;;;;;;4859658;29;20400;-61
2024/01/01 05:48:54;;;;;;;6.50;0.70;;;6.10;99.90;;;;;;4856058;29;20059;-61
2024/01/01 05:51:22;;;;;;;3.50;0.50;;;6.10;99.90;;;;;;4870905;29;20049;-61
2024/01/01 05:53:50;;;;;;;4.15;0.40;;;6.10;99.90;;;;;;4873239;29;20056;-61
2024/01/01 05:56:18;;;;;;;7.70;0.73;;;6.00;99.90;;;;;;4873361;29;20056;-60
2024/01/01 05:58:46;;;;;;;5.68;0.50;;;6.10;99.90;;;;;;4860664;29;20046;-61
2024/01/01 06:01:15;;;;;;;13.60;2.30;;;6.00;99.90;;;;;;4862883;29;20053;-62
2024/01/01 06:03:44;;;;;;;5.05;0.45;;;6.00;99.90;;;;;;4853203;29;20482;-61
2024/01/01 06:06:13;;;;;;;2.72;0.52;;;6.00;99.90;;;;;;4853001;29;20045;-62
2024/01/01 06:08:41;;;;;;;3.13;0.40;;;5.90;99.90;;;;;;4854350;29;20053;-60
2024/01/01 06:11:08;;;;;;;5.18;0.55;;;5.90;99.90;;;;;;4853933;29;20049;-61
2024/01/01 06:13:37;;;;;;;4.93;0.20;;;5.80;99.90;;;;;;4861194;29;20045;-62
2024/01/01 06:16:05;;;;;;;6.43;0.35;;;5.80;99.90;;;;;;4852720;29;20049;-62
2024/01/01 06:18:33;;;;;;;1.83;0.30;;;5.80;99.90;;;;;;4851370;29;20053;-62
2024/01/01 06:21:01;;;;;;;1.75;0.40;;;5.80;99.90;;;;;;4852982;29;20057;-63
2024/01/01 06:23:30;;;;;;;2.17;0.30;;;5.70;99.90;;;;;;4854423;29;20053;-64
2024/01/01 06:25:58;;;;;;;2.50;0.63;;;5.70;99.90;;;;;;4855224;29;20050;-63
2024/01/01 06:28:26;;;;;;;3.50;0.88;;;5.70;99.90;;;;;;4857898;29;20053;-63
2024/01/01 06:30:55;;;;;;;2.20;1.67;;;5.70;99.90;;;;;;4860616;29;20056;-63
2024/01/01 06:33:23;;;;;;;1.17;0.10;;;5.60;99.90;;;;;;4864326;29;20049;-66
2024/01/01 06:35:51;;;;;;;5.82;0.30;;;5.50;99.90;;;;;;4857447;29;20049;-64
2024/01/01 06:38:19;;;;;;;1.45;0.38;;;5.50;99.90;;;;;;4868845;29;20049;-63
2024/01/01 06:40:48;;;;;;;0.82;0.30;;;5.50;99.90;;;;;;4856662;29;20056;-66
2024/01/01 06:43:17;;;;;;;0.50;0.20;;;5.40;99.90;;;;;;4871443;29;20057;-62
2024/01/01 06:45:45;;;;;;;2.45;0.10;;;5.40;99.90;;;;;;4877113;29;20045;-62
2024/01/01 06:48:13;;;;;;;0.63;0.10;;;5.30;99.90;;;;;;4873054;29;20057;-62
2024/01/01 06:50:41;;;;;;;4.75;0.35;;;5.30;99.90;;;;;;4858295;29;20061;-61
2024/01/01 06:53:09;;;;;;;4.40;0.32;;;5.20;99.90;;;;;;4862885;29;20054;-62
2024/01/01 06:55:37;;;;;;;1.75;0.20;;;5.20;99.90;;;;;;4874222;29;20069;-63
2024/01/01 06:58:06;;;;;;;2.63;0.57;;;5.20;99.90;;;;;;4874251;29;20056;-63
2024/01/01 07:00:35;;;;;;;0.35;0.15;;;5.10;99.90;;;;;;4860503;29;20410;-64
2024/01/01 07:03:03;;;;;;;1.70;0.20;;;5.10;99.90;;;;;;4855484;29;20069;-61
2024/01/01 07:05:33;;;;;;;1.58;0.20;;;5.00;99.90;;;;;;4856169;29;20533;-61
2024/01/01 07:08:03;;;;;;;4.15;0.30;;;5.00;99.90;;;;;;4861220;29;20045;-61
2024/01/01 07:10:32;;;;;;;2.58;0.30;;;5.00;99.90;;;;;;4876325;29;20387;-61
2024/01/01 07:13:00;;;;;;;3.58;0.32;;;4.90;99.90;;;;;;4877065;29;20052;-62
2024/01/01 07:15:28;;;;;;;0.82;0.20;;;4.90;99.90;;;;;;4874452;29;20049;-61
2024/01/01 07:17:55;;;;;;;0.98;0.30;;;4.90;99.90;;;;;;4871808;29;20045;-62
2024/01/01 07:20:27;;;;;;;1.23;0.40;;;4.90;99.90;;;;;;4859033;29;20074;-61
2024/01/01 07:22:56;;;;;;;2.25;0.30;;;4.80;99.90;;;;;;4867579;29;20053;-61
2024/01/01 07:25:24;;;;;;;4.10;0.55;;;4.80;99.90;;;;;;4861657;29;20053;-62
2024/01/01 07:27:53;;;;;;;2.83;0.50;;;4.70;99.90;;;;;;4859965;29;20064;-61
2024/01/01 07:30:21;;;;;;;3.47;0.70;;;4.80;99.90;;;;;;4873235;29;20402;-63
2024/01/01 07:32:49;;;;;;;4.13;1.08;;;4.70;99.90;;;;;;4863035;29;20052;-64
2024/01/01 07:35:17;;;;;;;2.90;0.32;;;4.60;99.90;;;;;;4862237;29;20056;-61
2024/01/01 07:37:45;;;;;;;2.75;0.70;;;4.70;99.90;;;;;;4866025;29;20073;-61
2024/01/01 07:40:13;;;;;;;4.50;0.40;;;4.70;99.90;;;;;;4860441;29;20054;-61
2024/01/01 07:42:40;;;;;;;5.72;0.63;;;4.70;99.90;;;;;;4865082;29;20057;-61
2024/01/01 07:45:09;;;;;;;2.90;0.55;;;4.70;99.90;;;;;;4877101;29;20060;-60
2024/01/01 07:47:37;;;;;;;1.33;0.23;;;4.80;99.90;;;;;;4876715;29;20059;-62
2024/01/01 07:50:07;;;;;;;2.63;0.40;;;4.70;99.90;;;;;;4858991;29;20050;-61
2024/01/01 07:52:36;;;;;;;3.75;0.50;;;4.80;99.90;;;;;;4858309;29;20061;-61
2024/01/01 07:55:06;;;;;;;2.83;0.52;;;4.80;99.90;;;;;;4857251;29;20053;-60
2024/01/01 07:57:35;;;;;;;11.02;1.08;;;4.80;99.90;;;;;;4857795;29;20049;-61
2024/01/01 08:00:05;;;;;;;6.75;0.50;;;4.70;99.90;;;;;;4872171;29;20060;-61
2024/01/01 08:02:33;;;;;;;2.83;0.57;;;4.70;99.90;;;;;;4844980;29;20056;-62
2024/01/01 08:05:02;;;;;;;8.43;0.63;;;4.70;99.90;;;;;;4859853;29;20062;-61
2024/01/01 08:07:31;;;;;;;3.38;0.80;;;4.70;99.90;;;;;;4856367;29;20053;-61
2024/01/01 08:09:59;;;;;;;4.68;0.73;;;4.60;99.90;;;;;;4874049;29;20057;-62
2024/01/01 08:12:27;;;;;;;3.00;0.50;;;4.60;99.90;;;;;;4876213;29;20049;-62
2024/01/01 08:14:55;;;;;;;3.78;0.85;;;4.60;99.90;;;;;;4875561;29;20064;-63
2024/01/01 08:17:23;;;;;;;7.60;0.70;;;4.60;99.90;;;;;;4875146;29;20064;-62
2024/01/01 08:19:51;;;;;;;5.45;0.73;;;4.60;99.90;;;;;;4860709;29;20410;-61
2024/01/01 08:22:19;;;;;;;4.10;0.68;;;4.50;99.90;;;;;;4860613;29;20061;-60
2024/01/01 08:24:47;;;;;;;4.28;0.57;;;4.50;99.90;;;;;;4859388;29;20524;-61
2024/01/01 08:27:15;;;;;;;4.55;0.40;;;4.50;99.90;;;;;;4875852;29;20049;-61
2024/01/01 08:29:43;;;;;;;5.20;0.55;;;4.50;99.90;;;;;;4872559;29;20049;-61
2024/01/01 08:32:11;;;;;;;4.88;0.60;;;4.50;99.90;;;;;;4867511;29;20072;-61
2024/01/01 08:34:39;;;;;;;3.40;0.75;;;4.40;99.90;;;;;;4864421;29;20052;-62
2024/01/01 08:37:07;;;;;;;8.10;1.17;;;4.40;99.90;;;;;;4875098;29;20052;-62
2024/01/01 08:39:34;;;;;;;8.13;1.50;;;4.40;99.90;;;;;;4862393;29;20200;-62
2024/01/01 08:42:03;;;;;;;5.57;0.88;;;4.40;99.90;;;;;;4859216;29;20080;-67
2024/01/01 08:44:34;;;;;;;4.15;0.82;;;4.40;99.90;;;;;;4875798;29;20533;-71
2024/01/01 08:47:02;;;;;;;8.90;0.90;;;4.40;99.90;;;;;;4858849;29;20061;-68
2024/01/01 08:49:30;;;;;;;9.63;0.85;;;4.30;99.90;;;;;;4861891;29;20053;-67
2024/01/01 08:51:59;;;;;;;6.93;0.90;;;4.30;99.90;;;;;;4858367;29;20913;-65
2024/01/01 08:54:27;;;;;;;6.03;1.17;;;4.30;99.90;;;;;;4875828;29;20082;-62
2024/01/01 08:56:55;;;;;;;9.63;0.70;;;4.30;99.90;;;;;;4872704;29;20064;-62
2024/01/01 08:59:23;;;;;;;9.45;1.13;;;4.30;99.90;;;;;;4859970;29;20045;-61
2024/01/01 09:01:51;;;;;;;11.13;1.63;;;4.30;99.90;;;;;;4869474;29;20056;-62
2024/01/01 09:04:19;;;;;;;11.27;1.80;;;4.40;99.90;;;;;;4869042;29;20058;-61
2024/01/01 09:06:47;;;;;;;10.98;1.05;;;4.40;99.90;;;;;;4855795;29;20049;-62
2024/01/01 09:09:14;;;;;;;11.15;1.50;;;4.50;99.90;;;;;;4882352;29;20052;-63
2024/01/01 09:11:43;;;;;;;12.15;0.90;;;4.50;99.90;;;;;;4874240;29;20093;-62
2024/01/01 09:14:11;;;;;;;12.73;1.80;;;4.50;99.90;;;;;;4874124;29;20425;-63
2024/01/01 09:16:39;;;;;;;5.88;1.67;;;4.50;99.90;;;;;;4862185;29;20046;-61
2024/01/01 09:19:07;;;;;;;10.88;1.23;;;4.60;99.90;;;;;;4863555;29;20053;-61
2024/01/01 09:21:35;;;;;;;8.98;0.88;;;4.60;99.90;;;;;;4856962;29;20053;-61
2024/01/01 09:24:03;;;;;;;11.07;1.65;;;4.60;99.90;;;;;;4856062;29;20053;-62
2024/01/01 09:26:31;;;;;;;7.47;1.42;;;4.60;99.90;;;;;;4854650;29;20243;-60
2024/01/01 09:29:00;;;;;;;18.83;2.05;;;4.60;99.90;;;;;;4863975;29;20060;-62
2024/01/01 09:31:28;;;;;;;10.17;0.70;;;4.60;99.90;;;;;;4865786;29;20053;-62
2024/01/01 09:34:00;;;;;;;11.38;2.88;;;4.60;99.90;;;;;;4856619;29;20053;-62
2024/01/01 09:36:29;;;;;;;9.70;0.80;;;4.60;99.90;;;;;;4855152;29;20050;-62
2024/01/01 09:38:58;;;;;;;6.45;1.08;;;4.70;99.90;;;;;;4864397;29;20510;-61
2024/01/01 09:41:27;;;;;;;8.40;1.00;;;4.70;99.90;;;;;;4875199;29;20056;-62
2024/01/01 09:43:56;;;;;;;9.65;1.25;;;4.70;99.90;;;;;;4872956;29;20104;-62
2024/01/01 09:46:26;;;;;;;8.10;0.90;;;4.80;99.90;;;;;;4875165;29;20049;-62
2024/01/01 09:48:54;;;;;;;;;;;4.80;99.90;;;;;;4868692;29;20060;-62
2024/01/01 09:51:23;;;;;;;9.63;1.45;;;4.90;99.90;;;;;;4856510;29;19943;-61
2024/01/01 09:53:52;;;;;;;4.32;0.63;;;4.90;99.90;;;;;;4871655;29;20049;-61
2024/01/01 09:56:21;;;;;;;12.02;1.55;;;5.00;99.90;;;;;;4873600;29;20041;-61
2024/01/01 09:58:49;;;;;;;14.00;0.90;;;5.00;99.90;;;;;;4863199;29;20067;-61
2024/01/01 10:01:21;;;;;;;8.95;0.93;;;5.00;99.90;;;;;;4866531;29;20049;-61
2024/01/01 10:04:03;;;;;;;5.40;1.20;;;5.10;99.90;;;;;;4871238;29;20057;-63
2024/01/01 10:06:34;;;;;;;9.25;1.17;;;5.10;99.90;;;;;;4856889;29;20050;-64
2024/01/01 10:09:06;;;;;;;7.07;0.85;;;5.20;99.90;;;;;;4869098;29;20045;-63
2024/01/01 10:11:38;;;;;;;13.38;1.67;;;5.20;99.90;;;;;;4874387;29;20417;-64
2024/01/01 10:14:07;;;;;;;11.23;1.25;;;5.30;99.90;;;;;;4874549;29;20490;-67
2024/01/01 10:16:35;;;;;;;7.80;1.25;;;5.30;99.90;;;;;;4874714;29;20060;-63
2024/01/01 10:19:04;;;;;;;17.60;1.50;;;5.40;99.90;;;;;;4865727;29;20514;-62
2024/01/01 10:21:37;;;;;;;5.72;0.93;;;5.40;99.90;;;;;;4855035;29;20525;-61
2024/01/01 10:24:17;;;;;;;7.03;0.95;;;5.50;99.90;;;;;;4872520;29;20060;-61
2024/01/01 10:27:01;;;;;;;7.90;1.10;;;5.50;99.90;;;;;;4874462;29;20052;-61
2024/01/01 10:29:37;;;;;;;10.43;1.48;;;5.60;99.90;;;;;;4862558;29;20394;-61
2024/01/01 10:32:08;;;;;;;11.52;1.20;;;5.60;99.90;;;;;;4868313;29;20053;-61
2024/01/01 10:34:37;;;;;;;4.85;1.10;;;5.70;99.90;;;;;;4856975;29;20050;-62
2024/01/01 10:37:07;;;;;;;6.97;1.00;;;5.70;99.90;;;;;;4855807;29;20057;-62
2024/01/01 10:39:36;;;;;;;10.20;1.20;;;5.80;99.90;;;;;;4867531;29;20053;-62
2024/01/01 10:42:05;;;;;;;13.45;1.13;;;5.90;99.90;;;;;;4872950;29;20061;-61
2024/01/01 10:44:33;;;;;;;10.50;1.42;;;5.90;99.90;;;;;;4873286;29;20060;-61
2024/01/01 10:47:09;;;;;;;6.10;1.17;;;5.90;99.90;;;;;;4874415;29;20048;-61
2024/01/01 10:49:42;;;;;;;10.23;1.73;;;6.00;99.90;;;;;;4860665;29;20619;-61
2024/01/01 10:52:13;;;;;;;12.93;2.42;;;6.00;99.90;;;;;;4856625;29;20052;-61
2024/01/01 10:55:11;;;;;;;16.55;2.33;;;6.10;99.90;;;;;;4866639;29;20614;-61
2024/01/01 10:58:00;;;;;;;9.60;2.42;;;6.20;99.90;;;;;;4858128;29;20053;-61
2024/01/01 11:01:06;;;;;;;12.30;1.48;;;6.30;99.90;;;;;;4869370;29;20049;-62
2024/01/01 11:03:35;;;;;;;7.93;1.27;;;6.30;99.90;;;;;;4865886;29;20084;-62
2024/01/01 11:06:32;;;;;;;9.32;0.95;;;6.30;99.90;;;;;;4843726;29;20054;-62
2024/01/01 11:09:19;;;;;;;9.57;1.20;;;6.40;99.90;;;;;;4853710;29;20061;-62
2024/01/01 11:11:50;;;;;;;15.85;1.58;;;6.50;99.90;;;;;;4859537;29;20053;-60
2024/01/01 11:14:28;;;;;;;10.60;1.77;;;6.50;99.90;;;;;;4874010;29;20056;-62
2024/01/01 11:17:00;;;;;;;15.07;2.70;;;6.70;99.90;;;;;;4870723;29;20694;-60
2024/01/01 11:19:46;;;;;;;16.05;1.23;;;6.80;99.90;;;;;;4855018;29;20064;-61
2024/01/01 11:22:18;;;;;;;9.73;1.27;;;6.90;99.90;;;;;;4867551;29;20060;-63
2024/01/01 11:24:48;;;;;;;7.72;1.30;;;7.10;99.90;;;;;;4877576;29;20053;-61
2024/01/01 11:27:47;;;;;;;9.48;1.10;;;7.20;99.90;;;;;;4859102;29;20041;-64
2024/01/01 11:30:16;;;;;;;8.02;0.93;;;7.40;99.90;;;;;;4859199;29;20068;-65
2024/01/01 11:32:44;;;;;;;10.35;1.27;;;7.50;99.90;;;;;;4860972;29;20060;-66
2024/01/01 11:35:16;;;;;;;9.20;2.40;;;7.70;99.90;;;;;;4864468;29;20406;-70
2024/01/01 11:37:45;;;;;;;14.73;1.25;;;7.80;99.90;;;;;;4858601;29;20045;-63
2024/01/01 11:40:14;;;;;;;9.50;1.27;;;7.90;99.90;;;;;;4860637;29;20076;-70
2024/01/01 11:42:42;;;;;;;10.05;0.95;;;8.00;99.90;;;;;;4864310;29;20052;-70
2024/01/01 11:45:18;;;;;;;18.10;1.45;;;8.20;99.90;;;;;;4877044;29;20509;-71
2024/01/01 11:47:46;;;;;;;16.42;1.15;;;8.30;99.90;;;;;;4872562;29;20046;-66
2024/01/01 11:50:14;;;;;;;11.73;1.33;;;8.30;99.90;;;;;;4874785;29;20061;-70
2024/01/01 11:52:43;;;;;;;7.38;1.20;;;8.40;99.90;;;;;;4878392;29;20053;-68
2024/01/01 11:55:11;;;;;;;13.10;1.40;;;8.50;99.90;;;;;;4875972;29;20075;-71
2024/01/01 11:57:42;;;;;;;6.10;1.35;;;8.60;99.90;;;;;;4876901;29;20060;-71
2024/01/01 12:00:13;;;;;;;12.65;1.70;;;8.80;99.90;;;;;;4876654;29;20049;-69
2024/01/01 12:02:41;;;;;;;7.88;0.90;;;8.90;99.90;;;;;;4876416;29;20052;-71
2024/01/01 12:05:09;;;;;;;12.27;1.52;;;8.70;99.90;;;;;;4874467;29;20045;-62
2024/01/01 12:07:38;;;;;;;10.82;1.50;;;8.60;99.90;;;;;;4858127;29;20502;-65
2024/01/01 12:10:08;;;;;;;8.25;1.55;;;8.50;99.90;;;;;;4853456;29;20058;-63
2024/01/01 12:12:39;;;;;;;14.50;1.52;;;8.40;99.90;;;;;;4861452;29;20052;-63
2024/01/01 12:15:16;;;;;;;9.48;1.50;;;8.30;99.90;;;;;;4862423;29;20054;-63
2024/01/01 12:17:50;;;;;;;13.07;1.50;;;8.30;99.90;;;;;;4858383;29;20398;-64
2024/01/01 12:20:22;;;;;;;6.90;1.05;;;8.30;99.90;;;;;;4841321;29;20042;-72
2024/01/01 12:22:52;;;;;;;13.32;1.20;;;8.50;99.90;;;;;;4861040;29;20049;-67
2024/01/01 12:25:23;;;;;;;8.80;1.13;;;8.70;99.90;;;;;;4856874;29;20929;-65
2024/01/01 12:28:06;;;;;;;13.18;1.65;;;8.80;99.90;;;;;;4883195;29;20061;-63
2024/01/01 12:30:36;;;;;;;12.88;1.17;;;8.90;99.90;;;;;;4841299;29;20061;-65
2024/01/01 12:33:04;;;;;;;9.50;1.25;;;8.80;99.90;;;;;;4865849;29;20064;-64
2024/01/01 12:35:36;;;;;;;15.30;1.88;;;8.50;99.90;;;;;;4856694;29;20390;-63
2024/01/01 12:38:05;;;;;;;13.20;1.88;;;8.30;99.90;;;;;;4856700;29;20060;-63
2024/01/01 12:40:34;;;;;;;10.48;1.90;;;8.00;99.90;;;;;;4856708;29;20060;-64
2024/01/01 12:43:03;;;;;;;10.30;2.07;;;7.80;99.90;;;;;;4848940;29;20053;-64
2024/01/01 12:45:33;;;;;;;13.30;2.35;;;7.60;99.90;;;;;;4844114;29;20049;-63
2024/01/01 12:48:01;;;;;;;16.33;2.93;;;7.50;99.90;;;;;;4855040;29;20061;-64
2024/01/01 12:50:29;;;;;;;12.85;3.05;;;7.40;99.90;;;;;;4856581;29;20415;-64
2024/01/01 12:52:57;;;;;;;9.88;1.45;;;7.30;99.90;;;;;;4857472;29;20053;-63
2024/01/01 12:55:26;;;;;;;13.27;1.60;;;7.20;99.90;;;;;;4841006;29;20061;-65
2024/01/01 12:57:54;;;;;;;14.88;1.80;;;7.10;99.90;;;;;;4860332;29;20053;-65
2024/01/01 13:00:22;;;;;;;16.30;1.60;;;7.10;99.90;;;;;;4859426;29;20486;-64
2024/01/01 13:02:50;;;;;;;13.73;1.60;;;7.00;99.90;;;;;;4851782;29;20053;-64
2024/01/01 13:05:18;;;;;;;13.50;1.23;;;6.90;99.90;;;;;;4841794;29;20053;-66
2024/01/01 13:07:46;;;;;;;15.55;2.20;;;6.90;99.90;;;;;;4826432;29;20050;-64